ADDS METAR Data INFO
IDs: Format: Raw Decoded Include TAF

Data at: 2038 UTC 16 Dec 2017

KMHT 161953Z 27007G17KT 10SM SCT035 BKN080 M01/M09 A2989 RMK AO2 SLP141 T10111094
KMHT 161853Z 26010G15KT 10SM FEW050 BKN100 M01/M10 A2986 RMK AO2 SLP129 T10061100
KMHT 161753Z 27008G19KT 10SM FEW049 SCT100 BKN150 00/M11 A2985 RMK AO2 SLP126 4/004 T00001106 10000 21106 58010
KMHT 161653Z 29012G17KT 10SM FEW049 SCT085 SCT150 00/M10 A2985 RMK AO2 SLP129 T00001100
KMHT 161553Z 26004KT 10SM FEW120 M02/M09 A2988 RMK AO2 SLP136 T10171094
KMHT 161453Z 18006KT 10SM FEW120 M04/M09 A2988 RMK AO2 SLP137 T10391094 51012
KMHT 161353Z 00000KT 10SM FEW120 SCT180 M07/M11 A2987 RMK AO2 SLP137 T10671106
KMHT 161253Z 18004KT 10SM FEW120 M10/M12 A2985 RMK AO2 SLP131 T11001122
KMHT 161153Z COR 00000KT 10SM CLR M09/M13 A2984 RMK AO2 SLP126 4/004 T10941128 11056 21100 52020
KMHT 161053Z 00000KT 10SM CLR M09/M12 A2982 RMK AO2 SLP119 T10891117
KMHT 160953Z 22003KT 10SM CLR M07/M12 A2980 RMK AO2 SLP110 T10671117
KMHT 160853Z 26003KT 10SM FEW110 M07/M11 A2978 RMK AO2 SLP104 T10671111 53000
KMHT 160753Z 26003KT 10SM BKN120 M06/M11 A2978 RMK AO2 SLP104 T10611111
KMHT 160653Z 27003KT 10SM SCT100 M06/M11 A2977 RMK AO2 SLP102 T10611106
KMHT 160553Z 30007KT 10SM OVC100 M06/M10 A2978 RMK AO2 SLP104 4/004 T10561100 11050 21061 56014
KMHT 160453Z 00000KT 10SM FEW070 BKN100 M06/M10 A2979 RMK AO2 SLP107 T10561100 410391122
KMHT 160353Z 23003KT 10SM BKN070 OVC110 M05/M10 A2981 RMK AO2 SLP114 T10501100
KMHT 160253Z 20003KT 10SM BKN060 OVC070 M05/M11 A2982 RMK AO2 SLP118 T10501106 58008
KMHT 160153Z 20004KT 10SM OVC080 M05/M11 A2984 RMK AO2 SLP126 T10501106
KMHT 160053Z 19003KT 10SM OVC070 M05/M11 A2984 RMK AO2 SLP127 T10501111
KMHT 152353Z 00000KT 10SM OVC085 M05/M11 A2984 RMK AO2 SLP127 4/004 T10501111 11039 21050 56026
KMHT 152253Z 00000KT 10SM OVC060 M04/M12 A2987 RMK AO2 SLP135 T10441117
KMHT 152153Z 10003KT 10SM OVC085 M04/M12 A2989 RMK AO2 SLP144 T10441117
KMHT 152053Z 13004KT 10SM OVC110 M04/M12 A2992 RMK AO2 SLP154 T10441117 58018
KMHT 151953Z 20005KT 10SM OVC100 M04/M12 A2995 RMK AO2 SLP162 T10441122
KMHT 151853Z 20006KT 10SM BKN130 OVC200 M04/M13 A2995 RMK AO2 SLP164 T10441128
KMHT 151753Z 00000KT 10SM BKN200 M04/M13 A2998 RMK AO2 SLP171 4/004 T10441128 11044 21122 58029
KMHT 151653Z 00000KT 10SM BKN200 M05/M13 A3000 RMK AO2 SLP180 T10501128
KMHT 151553Z 00000KT 10SM BKN200 M07/M13 A3004 RMK AO2 SLP193 T10671133
KMHT 151453Z 18003KT 10SM BKN250 M08/M13 A3006 RMK AO2 SLP201 T10781133 53013
KMHT 151353Z 19003KT 10SM BKN250 M11/M14 A3005 RMK AO2 SLP198 T11111144
KMHT 151253Z 22004KT 10SM BKN250 M12/M15 A3003 RMK AO2 SLP192 T11171150
KMHT 151153Z VRB03KT 10SM SCT250 M12/M16 A3002 RMK AO2 SLP188 4/004 T11171161 11089 21122 51007
KMHT 151053Z 18004KT 10SM SCT250 M12/M16 A3002 RMK AO2 SLP186 T11171161
KMHT 150953Z 21005KT 10SM SCT250 M10/M16 A3001 RMK AO2 SLP185 T11001156
KMHT 150853Z 00000KT 10SM FEW250 M11/M16 A3000 RMK AO2 SLP181 T11111161 51014